Time;durP1;ratioP1;P1;durP2;ratioP2;P2;SDS_P1;SDS_P2;PMS_P1;PMS_P2;Temp;Humidity;BMP_temperature;BMP_pressure;BME280_temperature;BME280_humidity;BME280_pressure;Samples;Min_cycle;Max_cycle;Signal;HPM_P1;HPM_P2
2022/10/01 00:01:17;;;;;;;;;;;10.90;99.90;;;;;;5110062;28;20485;-56
2022/10/01 00:03:46;;;;;;;;;;;10.90;99.90;;;;;;5103662;28;19932;-56
2022/10/01 00:06:18;;;;;;;;;;;10.90;99.90;;;;;;5104328;28;19924;-56
2022/10/01 00:08:49;;;;;;;;;;;10.90;99.90;;;;;;5112168;27;20390;-56
2022/10/01 00:11:16;;;;;;;;;;;10.90;99.90;;;;;;5094976;28;19928;-56
2022/10/01 00:13:45;;;;;;;;;;;10.90;99.90;;;;;;5110206;27;19935;-56
2022/10/01 00:16:14;;;;;;;;;;;10.90;99.90;;;;;;5112463;28;19927;-56
2022/10/01 00:18:43;;;;;;;;;;;10.90;99.90;;;;;;5110390;28;19923;-56
2022/10/01 00:21:12;;;;;;;;;;;10.90;99.90;;;;;;5110932;28;19930;-56
2022/10/01 00:23:39;;;;;;;;;;;10.90;99.90;;;;;;5111568;27;19924;-56
2022/10/01 00:26:10;;;;;;;;;;;11.00;99.90;;;;;;5097144;28;20371;-56
2022/10/01 00:28:38;;;;;;;;;;;11.00;99.90;;;;;;5093283;28;20406;-56
2022/10/01 00:31:06;;;;;;;;;;;11.00;99.90;;;;;;5112310;28;20296;-57
2022/10/01 00:33:35;;;;;;;;;;;11.10;99.90;;;;;;5091248;27;19924;-56
2022/10/01 00:36:04;;;;;;;;;;;11.00;99.90;;;;;;5132711;27;20376;-56
2022/10/01 00:38:32;;;;;;;;;;;11.00;99.90;;;;;;5122826;27;19923;-57
2022/10/01 00:41:00;;;;;;;;;;;11.00;99.90;;;;;;5088273;28;19924;-56
2022/10/01 00:43:29;;;;;;;;;;;11.10;99.90;;;;;;5073819;28;19931;-57
2022/10/01 00:45:59;;;;;;;;;;;11.10;99.90;;;;;;5099112;28;19924;-56
2022/10/01 00:48:28;;;;;;;;;;;11.10;99.90;;;;;;5087803;28;19924;-56
2022/10/01 00:50:55;;;;;;;;;;;11.10;99.90;;;;;;5073295;28;19934;-56
2022/10/01 00:53:23;;;;;;;;;;;11.10;99.90;;;;;;5091614;28;19924;-56
2022/10/01 00:55:54;;;;;;;;;;;11.10;99.90;;;;;;5129762;27;19930;-56
2022/10/01 00:58:22;;;;;;;;;;;11.10;99.90;;;;;;5124000;27;19923;-56
2022/10/01 01:00:50;;;;;;;;;;;11.10;99.90;;;;;;5115549;27;19962;-56
2022/10/01 01:03:18;;;;;;;;;;;11.20;99.90;;;;;;5080053;28;20390;-56
2022/10/01 01:05:46;;;;;;;;;;;11.10;99.90;;;;;;5126070;27;19934;-57
2022/10/01 01:08:14;;;;;;;;;;;11.10;99.90;;;;;;5124218;27;19924;-57
2022/10/01 01:10:53;;;;;;;;;;;11.10;99.90;;;;;;5111570;28;19931;-57
2022/10/01 01:13:20;;;;;;;;;;;11.10;99.90;;;;;;5111546;28;19947;-57
2022/10/01 01:16:04;;;;;;;;;;;11.10;99.90;;;;;;5130530;27;20363;-57
2022/10/01 01:18:40;;;;;;;;;;;11.10;99.90;;;;;;5113561;27;19950;-60
2022/10/01 01:21:24;;;;;;;;;;;11.00;99.90;;;;;;5108223;28;19935;-56
2022/10/01 01:23:51;;;;;;;;;;;11.00;99.90;;;;;;5092853;28;20284;-57
2022/10/01 01:26:37;;;;;;;;;;;11.00;99.90;;;;;;5110275;28;19931;-56
2022/10/01 01:29:26;;;;;;;;;;;10.90;99.90;;;;;;5106745;28;19935;-56
2022/10/01 01:31:56;;;;;;;;;;;11.00;99.90;;;;;;5105674;27;19931;-56
2022/10/01 01:34:26;;;;;;;;;;;11.00;99.90;;;;;;5104170;28;20299;-56
2022/10/01 01:36:58;;;;;;;;;;;11.00;99.90;;;;;;5110090;28;19924;-56
2022/10/01 01:39:28;;;;;;;;;;;10.90;99.90;;;;;;5102066;27;19935;-56
2022/10/01 01:41:58;;;;;;;;;;;10.90;99.90;;;;;;5104051;28;19931;-56
2022/10/01 01:44:28;;;;;;;;;;;10.90;99.90;;;;;;5113103;28;19928;-56
2022/10/01 01:46:56;;;;;;;;;;;10.90;99.90;;;;;;5109575;28;19928;-56
2022/10/01 01:49:24;;;;;;;;;;;10.80;99.90;;;;;;5113934;28;19924;-56
2022/10/01 01:52:04;;;;;;;;;;;10.90;99.90;;;;;;5093767;28;19924;-56
2022/10/01 01:54:34;;;;;;;;;;;10.80;99.90;;;;;;5105744;28;19924;-56
2022/10/01 01:57:03;;;;;;;;;;;10.80;99.90;;;;;;5113384;28;20391;-56
2022/10/01 01:59:32;;;;;;;;;;;10.70;99.90;;;;;;5113120;28;19924;-56
2022/10/01 02:02:00;;;;;;;;;;;10.60;99.90;;;;;;5127726;27;19962;-56
2022/10/01 02:04:41;;;;;;;;;;;10.50;99.90;;;;;;5109791;28;19928;-56
2022/10/01 02:07:08;;;;;;;;;;;10.50;99.90;;;;;;5093291;28;20416;-56
2022/10/01 02:09:41;;;;;;;;;;;10.40;99.90;;;;;;5093500;28;19928;-56
2022/10/01 02:12:14;;;;;;;;;;;10.30;99.90;;;;;;5110732;28;19923;-56
2022/10/01 02:14:52;;;;;;;;;;;10.30;99.90;;;;;;5113460;28;19931;-57
2022/10/01 02:17:28;;;;;;;;;;;10.20;99.90;;;;;;5113527;28;19924;-56
2022/10/01 02:20:06;;;;;;;;;;;10.10;99.90;;;;;;5113681;28;20388;-56
2022/10/01 02:22:36;;;;;;;;;;;10.10;99.90;;;;;;5113984;28;19924;-56
2022/10/01 02:25:05;;;;;;;;;;;10.00;99.90;;;;;;5113901;28;19923;-56
2022/10/01 02:27:37;;;;;;;;;;;10.00;99.90;;;;;;5113089;28;19943;-56
2022/10/01 02:30:06;;;;;;;;;;;10.00;99.90;;;;;;5095367;28;19931;-56
2022/10/01 02:32:36;;;;;;;;;;;10.00;99.90;;;;;;5131814;27;19923;-56
2022/10/01 02:35:09;;;;;;;;;;;10.00;99.90;;;;;;5133949;27;20384;-56
2022/10/01 02:37:37;;;;;;;;;;;10.00;99.90;;;;;;5133750;27;19934;-56
2022/10/01 02:40:07;;;;;;;;;;;10.00;99.90;;;;;;5133591;27;19923;-56
2022/10/01 02:42:35;;;;;;;;;;;10.00;99.90;;;;;;5114569;27;19931;-56
2022/10/01 02:45:03;;;;;;;;;;;10.00;99.90;;;;;;5112874;28;19924;-56
2022/10/01 02:47:40;;;;;;;;;;;9.90;99.90;;;;;;5111183;28;19924;-56
2022/10/01 02:50:08;;;;;;;;;;;9.90;99.90;;;;;;5093900;28;19924;-56
2022/10/01 02:52:44;;;;;;;;;;;9.80;99.90;;;;;;5112990;28;19924;-56
2022/10/01 02:55:20;;;;;;;;;;;9.70;99.90;;;;;;5112771;28;19928;-56
2022/10/01 02:57:47;;;;;;;;;;;9.70;99.90;;;;;;5112992;28;20523;-56
2022/10/01 03:00:16;;;;;;;;;;;9.60;99.90;;;;;;5112862;28;19931;-56
2022/10/01 03:02:43;;;;;;;;;;;9.60;99.90;;;;;;5132754;27;20378;-56
2022/10/01 03:05:11;;;;;;;;;;;9.50;99.90;;;;;;5133171;27;19923;-55
2022/10/01 03:07:39;;;;;;;;;;;9.40;99.90;;;;;;5115137;27;19930;-56
2022/10/01 03:10:07;;;;;;;;;;;9.40;99.90;;;;;;5133262;27;19928;-56
2022/10/01 03:12:35;;;;;;;;;;;9.30;99.90;;;;;;5131958;27;20363;-56
2022/10/01 03:15:02;;;;;;;;;;;9.30;99.90;;;;;;5133101;27;20424;-56
2022/10/01 03:17:30;;;;;;;;;;;9.20;99.90;;;;;;5133191;27;19923;-56
2022/10/01 03:19:57;;;;;;;;;;;9.20;99.90;;;;;;5114749;27;19930;-56
2022/10/01 03:22:24;;;;;;;;;;;9.10;99.90;;;;;;5133197;27;20388;-56
2022/10/01 03:24:52;;;;;;;;;;;9.00;99.90;;;;;;5132118;27;20362;-56
2022/10/01 03:27:20;;;;;;;;;;;9.00;99.90;;;;;;5114523;28;19923;-56
2022/10/01 03:29:47;;;;;;;;;;;8.90;99.90;;;;;;5133007;27;19924;-56
2022/10/01 03:32:15;;;;;;;;;;;8.90;99.90;;;;;;5132940;27;19924;-55
2022/10/01 03:34:43;;;;;;;;;;;8.80;99.90;;;;;;5132911;28;20428;-55
2022/10/01 03:37:10;;;;;;;;;;;8.80;99.90;;;;;;5114484;28;20378;-55
2022/10/01 03:39:38;;;;;;;;;;;8.80;99.90;;;;;;5131996;28;20397;-56
2022/10/01 03:42:05;;;;;;;;;;;8.80;99.90;;;;;;5132735;28;19924;-56
2022/10/01 03:44:33;;;;;;;;;;;8.80;99.90;;;;;;5132796;28;19923;-56
2022/10/01 03:47:00;;;;;;;;;;;8.80;99.90;;;;;;5132745;28;20379;-56
2022/10/01 03:49:28;;;;;;;;;;;8.90;99.90;;;;;;5132811;28;19924;-56
2022/10/01 03:51:55;;;;;;;;;;;9.00;99.90;;;;;;5132115;27;19923;-55
2022/10/01 03:54:24;;;;;;;;;;;9.00;99.90;;;;;;5132788;28;19924;-56
2022/10/01 03:56:51;;;;;;;;;;;9.10;99.90;;;;;;5132749;28;19923;-56
2022/10/01 03:59:19;;;;;;;;;;;9.10;99.90;;;;;;5132676;28;19938;-56
2022/10/01 04:01:46;;;;;;;;;;;9.20;99.90;;;;;;5132619;28;19934;-55
2022/10/01 04:04:14;;;;;;;;;;;9.20;99.90;;;;;;5116406;28;19923;-55
2022/10/01 04:06:42;;;;;;;;;;;9.20;99.90;;;;;;5112347;28;19931;-56
2022/10/01 04:09:09;;;;;;;;;;;9.20;99.90;;;;;;5094111;28;19924;-56
2022/10/01 04:11:37;;;;;;;;;;;9.20;99.90;;;;;;5112204;28;19924;-56
2022/10/01 04:14:05;;;;;;;;;;;9.20;99.90;;;;;;5112091;28;19924;-56
2022/10/01 04:16:35;;;;;;;;;;;9.30;99.90;;;;;;5110931;28;19931;-56
2022/10/01 04:19:08;;;;;;;;;;;9.30;99.90;;;;;;5093555;28;20375;-56
2022/10/01 04:21:36;;;;;;;;;;;9.30;99.90;;;;;;5109291;28;19930;-56
2022/10/01 04:24:04;;;;;;;;;;;9.30;99.90;;;;;;5114824;28;19931;-56
2022/10/01 04:26:31;;;;;;;;;;;9.30;99.90;;;;;;5115896;28;19923;-56
2022/10/01 04:28:59;;;;;;;;;;;9.30;99.90;;;;;;5115805;28;19923;-56
2022/10/01 04:31:26;;;;;;;;;;;9.30;99.90;;;;;;5124721;27;20294;-57
2022/10/01 04:33:55;;;;;;;;;;;9.20;99.90;;;;;;5136290;27;20322;-56
2022/10/01 04:36:23;;;;;;;;;;;9.20;99.90;;;;;;5136177;27;19923;-56
2022/10/01 04:38:55;;;;;;;;;;;9.20;99.90;;;;;;5136324;27;20276;-55
2022/10/01 04:41:29;;;;;;;;;;;9.20;99.90;;;;;;5117625;27;19947;-56
2022/10/01 04:43:58;;;;;;;;;;;9.20;99.90;;;;;;5136112;27;20275;-56
2022/10/01 04:46:27;;;;;;;;;;;9.10;99.90;;;;;;5136098;27;19931;-56
2022/10/01 04:48:54;;;;;;;;;;;9.10;99.90;;;;;;5107434;27;19943;-56
2022/10/01 04:51:22;;;;;;;;;;;9.10;99.90;;;;;;5091662;28;19924;-56
2022/10/01 04:53:49;;;;;;;;;;;9.00;99.90;;;;;;5073639;28;19924;-56
2022/10/01 04:56:17;;;;;;;;;;;8.90;99.90;;;;;;5073893;28;20465;-57
2022/10/01 04:58:44;;;;;;;;;;;8.80;99.90;;;;;;5106609;28;20268;-56
2022/10/01 05:01:11;;;;;;;;;;;8.80;99.90;;;;;;5118785;27;19932;-56
2022/10/01 05:03:40;;;;;;;;;;;8.80;99.90;;;;;;5091607;27;19924;-56
2022/10/01 05:06:07;;;;;;;;;;;8.80;99.90;;;;;;5088209;28;20452;-56
2022/10/01 05:08:36;;;;;;;;;;;8.70;99.90;;;;;;5103000;28;19935;-56
2022/10/01 05:11:03;;;;;;;;;;;8.60;99.90;;;;;;5110263;28;20275;-56
2022/10/01 05:13:31;;;;;;;;;;;8.60;99.90;;;;;;5107812;28;20401;-56
2022/10/01 05:15:59;;;;;;;;;;;8.60;99.90;;;;;;5089934;28;19931;-56
2022/10/01 05:18:27;;;;;;;;;;;8.60;99.90;;;;;;5109478;27;20295;-55
2022/10/01 05:20:55;;;;;;;;;;;8.50;99.90;;;;;;5091160;28;19935;-56
2022/10/01 05:23:22;;;;;;;;;;;8.60;99.90;;;;;;5104239;28;19924;-56
2022/10/01 05:25:49;;;;;;;;;;;8.50;99.90;;;;;;5111202;28;19924;-56
2022/10/01 05:28:18;;;;;;;;;;;8.50;99.90;;;;;;5090150;28;19924;-56
2022/10/01 05:30:49;;;;;;;;;;;8.50;99.90;;;;;;5111465;27;19930;-56
2022/10/01 05:33:17;;;;;;;;;;;8.50;99.90;;;;;;5124525;27;19947;-56
2022/10/01 05:35:45;;;;;;;;;;;8.60;99.90;;;;;;5110554;28;19923;-56
2022/10/01 05:38:12;;;;;;;;;;;8.60;99.90;;;;;;5110838;28;20306;-56
2022/10/01 05:40:43;;;;;;;;;;;8.60;99.90;;;;;;5110630;28;19947;-56
2022/10/01 05:43:11;;;;;;;;;;;8.60;99.90;;;;;;5088983;28;19931;-56
2022/10/01 05:45:39;;;;;;;;;;;8.70;99.90;;;;;;5107512;28;19928;-56
2022/10/01 05:48:07;;;;;;;;;;;8.70;99.90;;;;;;5105452;28;19951;-56
2022/10/01 05:50:38;;;;;;;;;;;8.70;99.90;;;;;;5087092;28;20327;-56
2022/10/01 05:53:06;;;;;;;;;;;8.80;99.90;;;;;;5108398;27;19942;-56
2022/10/01 05:55:34;;;;;;;;;;;8.80;99.90;;;;;;5127949;27;20382;-56
2022/10/01 05:58:03;;;;;;;;;;;8.80;99.90;;;;;;5130515;27;19930;-56
2022/10/01 06:00:31;;;;;;;;;;;8.90;99.90;;;;;;5130523;27;20398;-56
2022/10/01 06:02:59;;;;;;;;;;;9.00;99.90;;;;;;5117258;27;20298;-56
2022/10/01 06:05:28;;;;;;;;;;;9.00;99.90;;;;;;5107182;28;19924;-56
2022/10/01 06:07:56;;;;;;;;;;;9.00;99.90;;;;;;5116253;27;19930;-60
2022/10/01 06:10:24;;;;;;;;;;;9.10;99.90;;;;;;5110048;28;19924;-56
2022/10/01 06:12:56;;;;;;;;;;;9.10;99.90;;;;;;5110100;28;19928;-56
2022/10/01 06:15:24;;;;;;;;;;;9.10;99.90;;;;;;5110545;28;19924;-56
2022/10/01 06:17:51;;;;;;;;;;;9.10;99.90;;;;;;5117543;27;20378;-56
2022/10/01 06:20:19;;;;;;;;;;;9.10;99.90;;;;;;5110028;27;19923;-56
2022/10/01 06:22:54;;;;;;;;;;;9.10;99.90;;;;;;5110019;28;19928;-56
2022/10/01 06:25:21;;;;;;;;;;;9.10;99.90;;;;;;5091564;28;19931;-56
2022/10/01 06:27:56;;;;;;;;;;;9.10;99.90;;;;;;5109939;28;19935;-56
2022/10/01 06:30:28;;;;;;;;;;;9.20;99.90;;;;;;5109787;27;19931;-56
2022/10/01 06:33:01;;;;;;;;;;;9.20;99.90;;;;;;5121184;27;19923;-56
2022/10/01 06:35:33;;;;;;;;;;;9.20;99.90;;;;;;5095275;28;19924;-56
2022/10/01 06:38:01;;;;;;;;;;;9.20;99.90;;;;;;5109716;28;19930;-56
2022/10/01 06:40:29;;;;;;;;;;;9.20;99.90;;;;;;5109556;28;20401;-56
2022/10/01 06:42:57;;;;;;;;;;;9.30;99.90;;;;;;5109649;28;19931;-56
2022/10/01 06:45:25;;;;;;;;;;;9.30;99.90;;;;;;5090460;28;19935;-56
2022/10/01 06:47:53;;;;;;;;;;;9.30;99.90;;;;;;5103994;28;19923;-56
2022/10/01 06:50:21;;;;;;;;;;;9.30;99.90;;;;;;5086930;28;20387;-55
2022/10/01 06:52:49;;;;;;;;;;;9.40;99.90;;;;;;5107179;28;19924;-56
2022/10/01 06:55:20;;;;;;;;;;;9.40;99.90;;;;;;5108918;28;19931;-56
2022/10/01 06:57:52;;;;;;;;;;;9.40;99.90;;;;;;5107515;28;19924;-55
2022/10/01 07:00:20;;;;;;;;;;;9.50;99.90;;;;;;5093192;28;20378;-56
2022/10/01 07:02:47;;;;;;;;;;;9.50;99.90;;;;;;5111541;27;19931;-56
2022/10/01 07:05:15;;;;;;;;;;;9.60;99.90;;;;;;5102346;28;20299;-56
2022/10/01 07:07:43;;;;;;;;;;;9.70;99.90;;;;;;5087062;28;19924;-56
2022/10/01 07:10:11;;;;;;;;;;;9.80;99.90;;;;;;5103025;28;19931;-56
2022/10/01 07:12:38;;;;;;;;;;;9.80;99.90;;;;;;5105653;28;20491;-56
2022/10/01 07:15:07;;;;;;;;;;;9.90;99.90;;;;;;5107009;28;20374;-57
2022/10/01 07:17:41;;;;;;;;;;;10.00;99.90;;;;;;5105798;28;19923;-56
2022/10/01 07:20:09;;;;;;;;;;;10.00;99.90;;;;;;5095883;28;19928;-57
2022/10/01 07:22:36;;;;;;;;;;;10.10;99.90;;;;;;5104731;28;19931;-56
2022/10/01 07:25:04;;;;;;;;;;;10.10;99.90;;;;;;5108439;28;19928;-57
2022/10/01 07:27:32;;;;;;;;;;;10.20;99.90;;;;;;5106203;28;19931;-57
2022/10/01 07:30:00;;;;;;;;;;;10.20;99.90;;;;;;5105381;28;19924;-57
2022/10/01 07:32:30;;;;;;;;;;;10.30;99.90;;;;;;5121478;27;19924;-57
2022/10/01 07:34:58;;;;;;;;;;;10.30;99.90;;;;;;5099011;28;19924;-56
2022/10/01 07:37:25;;;;;;;;;;;10.30;99.90;;;;;;5071061;28;19939;-57
2022/10/01 07:39:53;;;;;;;;;;;10.40;99.90;;;;;;5108870;28;19931;-57
2022/10/01 07:42:20;;;;;;;;;;;10.40;99.90;;;;;;5107861;28;20420;-57
2022/10/01 07:44:48;;;;;;;;;;;10.50;99.90;;;;;;5108877;28;19923;-57
2022/10/01 07:47:15;;;;;;;;;;;10.60;99.90;;;;;;5092083;28;20422;-57
2022/10/01 07:49:43;;;;;;;;;;;10.60;99.90;;;;;;5112577;28;19924;-56
2022/10/01 07:52:10;;;;;;;;;;;10.70;99.90;;;;;;5108241;28;19931;-56
2022/10/01 07:54:39;;;;;;;;;;;10.80;99.90;;;;;;5108736;28;19928;-56
2022/10/01 07:57:07;;;;;;;;;;;10.90;99.90;;;;;;5108935;28;19934;-57
2022/10/01 07:59:34;;;;;;;;;;;10.90;99.90;;;;;;5104975;28;19932;-56
2022/10/01 08:02:02;;;;;;;;;;;11.00;99.90;;;;;;5106672;27;19924;-56
2022/10/01 08:07:16;;;;;;;;;;;11.20;99.90;;;;;;5097474;28;20634;-56
2022/10/01 08:09:43;;;;;;;;;;;11.20;99.90;;;;;;5112287;28;19935;-57
2022/10/01 08:12:10;;;;;;;;;;;11.30;99.90;;;;;;5110436;28;20121;-56
2022/10/01 08:14:38;;;;;;;;;;;11.30;99.90;;;;;;5109958;28;19929;-57
2022/10/01 08:17:05;;;;;;;;;;;11.40;99.90;;;;;;5110279;28;19924;-57
2022/10/01 08:19:33;;;;;;;;;;;11.50;99.90;;;;;;5122562;27;19931;-56
2022/10/01 08:22:00;;;;;;;;;;;11.60;99.90;;;;;;5075507;27;19935;-57
2022/10/01 08:24:28;;;;;;;;;;;11.60;99.90;;;;;;5093514;28;19928;-57
2022/10/01 08:26:56;;;;;;;;;;;11.70;99.90;;;;;;5110783;28;20391;-56
2022/10/01 08:29:23;;;;;;;;;;;11.70;99.90;;;;;;5131688;27;19923;-56
2022/10/01 08:31:51;;;;;;;;;;;11.90;99.90;;;;;;5132666;27;19927;-56
2022/10/01 08:34:18;;;;;;;;;;;11.90;99.90;;;;;;5091596;28;20410;-56
2022/10/01 08:36:50;;;;;;;;;;;12.00;99.90;;;;;;5076298;28;19932;-56
2022/10/01 08:39:17;;;;;;;;;;;12.00;99.90;;;;;;5110835;28;19944;-56
2022/10/01 08:41:48;;;;;;;;;;;12.10;99.90;;;;;;5111054;28;19931;-56
2022/10/01 08:44:28;;;;;;;;;;;12.20;99.90;;;;;;5111926;28;19924;-56
2022/10/01 08:46:58;;;;;;;;;;;12.20;99.90;;;;;;5110549;28;19934;-57
2022/10/01 08:49:28;;;;;;;;;;;12.30;99.90;;;;;;5101726;28;19932;-56
2022/10/01 08:52:06;;;;;;;;;;;12.40;99.90;;;;;;5093542;27;19923;-57
2022/10/01 08:54:45;;;;;;;;;;;12.50;99.90;;;;;;5110644;28;19924;-57
2022/10/01 08:57:18;;;;;;;;;;;12.60;99.90;;;;;;5093554;28;20408;-57
2022/10/01 08:59:57;;;;;;;;;;;12.60;99.90;;;;;;5111810;28;19924;-57
2022/10/01 09:02:27;;;;;;;;;;;12.70;99.90;;;;;;5124599;27;19923;-57
2022/10/01 09:04:59;;;;;;;;;;;12.80;99.90;;;;;;5105980;28;19928;-56
2022/10/01 09:07:44;;;;;;;;;;;12.80;99.90;;;;;;5092756;27;19923;-56
2022/10/01 09:10:31;;;;;;;;;;;12.90;99.90;;;;;;5112849;27;20371;-57
2022/10/01 09:13:12;;;;;;;;;;;13.00;99.90;;;;;;5113526;27;19930;-57
2022/10/01 09:15:40;;;;;;;;;;;13.10;99.90;;;;;;5132193;27;19934;-56
2022/10/01 09:18:16;;;;;;;;;;;13.20;99.90;;;;;;5096687;28;19924;-57
2022/10/01 09:20:52;;;;;;;;;;;13.20;99.90;;;;;;5057004;28;19924;-57
2022/10/01 09:23:29;;;;;;;;;;;13.30;99.90;;;;;;5090862;28;19928;-57
2022/10/01 09:25:58;;;;;;;;;;;13.40;99.90;;;;;;5088614;28;20307;-57
2022/10/01 09:28:27;;;;;;;;;;;13.50;99.90;;;;;;5082162;28;19928;-57
2022/10/01 09:31:02;;;;;;;;;;;13.50;99.90;;;;;;5092067;28;19931;-57
2022/10/01 09:33:33;;;;;;;;;;;13.60;99.90;;;;;;5085746;28;19924;-56
2022/10/01 09:36:19;;;;;;;;;;;13.70;99.90;;;;;;5075630;28;20379;-57
2022/10/01 09:38:51;;;;;;;;;;;13.90;99.90;;;;;;5075030;28;19931;-57
2022/10/01 09:41:18;;;;;;;;;;;14.00;99.90;;;;;;5083227;28;19981;-56
2022/10/01 09:43:46;;;;;;;;;;;14.10;99.90;;;;;;5073125;28;19925;-56
2022/10/01 09:46:15;;;;;;;;;;;14.20;99.90;;;;;;5066372;28;19931;-57
2022/10/01 09:48:46;;;;;;;;;;;14.40;99.90;;;;;;5069936;28;20303;-57
2022/10/01 09:51:21;;;;;;;;;;;14.60;99.90;;;;;;5074681;28;19924;-57
2022/10/01 09:54:01;;;;;;;;;;;14.70;99.90;;;;;;5077081;28;19928;-58
2022/10/01 09:56:29;;;;;;;;;;;14.90;99.90;;;;;;5073824;28;19951;-57
2022/10/01 09:59:00;;;;;;;;;;;15.10;99.90;;;;;;5090541;27;20299;-57
2022/10/01 10:01:47;;;;;;;;;;;15.30;99.90;;;;;;5079011;28;19936;-57
2022/10/01 10:04:19;;;;;;;;;;;15.40;99.90;;;;;;5074160;28;19931;-57
2022/10/01 10:06:47;;;;;;;;;;;15.60;99.90;;;;;;5067220;28;19931;-57
2022/10/01 10:09:20;;;;;;;;;;;15.80;99.90;;;;;;5075333;28;19924;-57
2022/10/01 10:11:48;;;;;;;;;;;15.90;99.90;;;;;;5066138;28;19925;-57
2022/10/01 10:14:18;;;;;;;;;;;16.10;99.90;;;;;;5077371;28;20485;-57
2022/10/01 10:16:47;;;;;;;;;;;16.20;99.90;;;;;;5066238;28;20303;-57
2022/10/01 10:19:18;;;;;;;;;;;16.20;99.90;;;;;;5087478;28;19925;-56
2022/10/01 10:21:50;;;;;;;;;;;16.20;99.90;;;;;;5086518;28;19924;-57
2022/10/01 10:24:21;;;;;;;;;;;16.30;99.90;;;;;;5088441;28;19935;-57
2022/10/01 10:26:56;;;;;;;;;;;16.40;99.90;;;;;;5088955;28;19924;-57
2022/10/01 10:29:34;;;;;;;;;;;16.40;99.90;;;;;;5073855;28;20108;-57
2022/10/01 10:32:03;;;;;;;;;;;16.30;99.90;;;;;;5082639;27;19946;-57
2022/10/01 10:34:37;;;;;;;;;;;16.30;99.90;;;;;;5100535;28;19923;-57
2022/10/01 10:37:06;;;;;;;;;;;16.20;99.90;;;;;;5097203;28;19924;-57
2022/10/01 10:39:35;;;;;;;;;;;16.20;99.90;;;;;;5088626;28;19924;-57
2022/10/01 10:42:04;;;;;;;;;;;16.20;99.90;;;;;;5094206;28;20417;-57
2022/10/01 10:44:35;;;;;;;;;;;16.20;99.90;;;;;;5106750;28;19923;-57
2022/10/01 10:47:12;;;;;;;;;;;16.30;99.90;;;;;;5087951;28;20283;-57
2022/10/01 10:49:44;;;;;;;;;;;16.40;99.90;;;;;;5094813;28;19931;-57
2022/10/01 10:52:24;;;;;;;;;;;16.40;99.90;;;;;;5094915;28;20196;-56
2022/10/01 10:54:53;;;;;;;;;;;16.40;99.90;;;;;;5077714;28;19939;-57
2022/10/01 10:57:38;;;;;;;;;;;16.50;99.90;;;;;;5062641;27;19932;-57
2022/10/01 11:00:12;;;;;;;;;;;16.40;99.90;;;;;;5093681;27;19924;-57
2022/10/01 11:02:47;;;;;;;;;;;16.40;99.90;;;;;;5097748;27;19924;-57
2022/10/01 11:05:22;;;;;;;;;;;16.20;99.90;;;;;;5068539;28;20327;-57
2022/10/01 11:07:52;;;;;;;;;;;16.00;99.90;;;;;;5093261;28;19928;-57
2022/10/01 11:10:38;;;;;;;;;;;15.90;99.90;;;;;;5091859;28;19928;-57
2022/10/01 11:13:13;;;;;;;;;;;15.80;99.90;;;;;;5090918;28;19994;-57
2022/10/01 11:15:49;;;;;;;;;;;15.80;99.90;;;;;;5090481;28;19931;-57
2022/10/01 11:18:17;;;;;;;;;;;15.80;99.90;;;;;;5096427;27;19927;-57
2022/10/01 11:20:49;;;;;;;;;;;15.90;99.90;;;;;;5066631;28;19935;-57
2022/10/01 11:23:36;;;;;;;;;;;15.90;99.90;;;;;;5092795;28;19927;-57
2022/10/01 11:26:11;;;;;;;;;;;15.90;99.90;;;;;;5087146;28;19947;-56
2022/10/01 11:28:51;;;;;;;;;;;16.10;99.90;;;;;;5094725;28;20299;-57
2022/10/01 11:31:24;;;;;;;;;;;16.20;99.90;;;;;;5094903;28;19924;-56
2022/10/01 11:34:10;;;;;;;;;;;16.60;99.90;;;;;;5111801;28;19924;-57
2022/10/01 11:36:44;;;;;;;;;;;16.80;99.90;;;;;;5106573;28;20383;-57
2022/10/01 11:39:11;;;;;;;;;;;17.10;99.90;;;;;;5105626;28;19923;-57
2022/10/01 11:41:42;;;;;;;;;;;17.40;99.90;;;;;;5085409;28;20410;-57
2022/10/01 11:44:12;;;;;;;;;;;17.70;99.90;;;;;;5123654;28;19947;-56
2022/10/01 11:46:58;;;;;;;;;;;18.00;99.90;;;;;;5081351;28;20375;-56
2022/10/01 11:49:45;;;;;;;;;;;18.20;99.90;;;;;;5100248;28;19942;-56
2022/10/01 11:52:15;;;;;;;;;;;18.40;99.90;;;;;;5091602;28;19935;-56
2022/10/01 12:00:47;;;;;;;;;;;18.30;99.90;;;;;;5092618;28;19928;-56
2022/10/01 12:03:17;;;;;;;;;;;18.00;99.90;;;;;;5102172;28;19923;-56
2022/10/01 12:05:46;;;;;;;;;;;17.80;99.90;;;;;;5094672;28;20314;-57
2022/10/01 12:08:17;;;;;;;;;;;17.80;99.90;;;;;;5106592;28;19927;-56
2022/10/01 12:11:05;;;;;;;;;;;18.00;99.90;;;;;;5126231;28;19934;-56
2022/10/01 12:13:41;;;;;;;;;;;18.50;99.90;;;;;;5087042;28;19927;-56
2022/10/01 12:16:14;;;;;;;;;;;19.00;99.90;;;;;;5085377;28;19924;-56
2022/10/01 12:18:47;;;;;;;;;;;19.10;99.90;;;;;;5068151;28;19928;-56
2022/10/01 12:21:26;;;;;;;;;;;18.90;99.90;;;;;;5085775;28;19924;-56
2022/10/01 12:24:04;;;;;;;;;;;18.50;99.90;;;;;;5100482;28;19932;-56
2022/10/01 12:26:38;;;;;;;;;;;18.20;99.90;;;;;;5082932;28;19924;-56
2022/10/01 12:29:24;;;;;;;;;;;17.90;99.90;;;;;;5084787;28;19931;-56
2022/10/01 12:31:52;;;;;;;;;;;17.70;99.90;;;;;;5099658;28;19924;-56
2022/10/01 12:34:35;;;;;;;;;;;17.50;99.90;;;;;;5106954;28;19924;-56
2022/10/01 12:37:09;;;;;;;;;;;17.30;99.90;;;;;;5069897;28;19924;-56
2022/10/01 12:39:46;;;;;;;;;;;17.20;99.90;;;;;;5120013;28;19924;-57
2022/10/01 12:42:32;;;;;;;;;;;17.10;99.90;;;;;;5087372;28;19928;-57
2022/10/01 12:45:09;;;;;;;;;;;17.00;99.90;;;;;;5093652;28;20287;-56
2022/10/01 12:47:51;;;;;;;;;;;16.90;99.90;;;;;;5095879;28;19935;-56
2022/10/01 12:50:18;;;;;;;;;;;16.90;99.90;;;;;;5083495;28;19924;-56
2022/10/01 12:53:04;;;;;;;;;;;17.00;99.90;;;;;;5101493;27;19930;-56
2022/10/01 12:55:34;;;;;;;;;;;17.10;99.90;;;;;;5089255;28;19925;-56
2022/10/01 12:58:22;;;;;;;;;;;17.20;99.90;;;;;;5092555;27;19972;-56
2022/10/01 13:00:59;;;;;;;;;;;17.20;99.90;;;;;;5095774;27;19931;-56
2022/10/01 13:03:31;;;;;;;;;;;17.30;99.90;;;;;;5105549;28;20394;-56
2022/10/01 13:05:58;;;;;;;;;;;17.60;99.90;;;;;;5108237;28;19930;-56
2022/10/01 13:08:35;;;;;;;;;;;18.20;99.90;;;;;;5108070;28;19932;-56
2022/10/01 13:11:10;;;;;;;;;;;18.60;99.90;;;;;;5108433;28;20382;-56
2022/10/01 13:13:37;;;;;;;;;;;18.90;99.90;;;;;;5089901;28;19931;-56
2022/10/01 13:16:05;;;;;;;;;;;19.10;99.90;;;;;;5090211;28;19924;-56
2022/10/01 13:18:47;;;;;;;;;;;19.70;99.90;;;;;;5108005;28;20406;-56
2022/10/01 13:21:34;;;;;;;;;;;20.20;99.90;;;;;;5108154;28;19935;-56
2022/10/01 13:24:11;;;;;;;;;;;20.70;99.80;;;;;;5089517;28;20383;-56
2022/10/01 13:26:46;;;;;;;;;;;21.20;99.90;;;;;;5108255;28;20120;-56
2022/10/01 13:29:25;;;;;;;;;;;21.70;98.00;;;;;;5106292;28;19931;-57
2022/10/01 13:31:57;;;;;;;;;;;22.10;97.00;;;;;;5120501;27;19924;-57
2022/10/01 13:34:38;;;;;;;;;;;22.30;97.60;;;;;;5108444;27;19938;-56
2022/10/01 13:37:09;;;;;;;;;;;22.30;95.10;;;;;;5107795;28;19924;-56
2022/10/01 13:39:40;;;;;;;;;;;21.90;95.50;;;;;;5127520;27;20527;-56
2022/10/01 13:42:19;;;;;;;;;;;21.40;95.50;;;;;;5109660;27;19930;-57
2022/10/01 13:44:51;;;;;;;;;;;21.20;97.20;;;;;;5087702;28;19931;-57
2022/10/01 13:47:18;;;;;;;;;;;21.50;97.00;;;;;;5087975;27;19924;-56
2022/10/01 13:49:57;;;;;;;;;;;22.00;95.80;;;;;;5128069;27;19923;-59
2022/10/01 13:52:25;;;;;;;;;;;22.00;95.90;;;;;;5104007;27;19935;-57
2022/10/01 13:54:54;;;;;;;;;;;22.00;94.60;;;;;;5092661;28;19931;-58
2022/10/01 13:57:21;;;;;;;;;;;21.60;95.40;;;;;;5087786;28;19947;-57
2022/10/01 13:59:57;;;;;;;;;;;21.20;96.30;;;;;;5095896;28;19924;-57
2022/10/01 14:02:30;;;;;;;;;;;20.80;97.40;;;;;;5118466;27;19928;-57
2022/10/01 14:05:13;;;;;;;;;;;20.50;97.70;;;;;;5107180;28;20656;-57
2022/10/01 14:07:42;;;;;;;;;;;20.20;98.00;;;;;;5107150;28;20452;-57
2022/10/01 14:10:12;;;;;;;;;;;20.00;98.40;;;;;;5088531;28;19927;-57
2022/10/01 14:16:01;;;;;;;;;;;19.50;97.20;;;;;;5096985;27;19929;-57
2022/10/01 14:18:32;;;;;;;;;;;19.30;98.30;;;;;;5096575;28;19934;-55
2022/10/01 14:20:59;;;;;;;;;;;19.00;98.40;;;;;;5088397;28;19924;-56
2022/10/01 14:23:31;;;;;;;;;;;18.90;99.10;;;;;;5106745;28;19931;-56
2022/10/01 14:26:31;;;;;;;;;;;18.80;98.50;;;;;;5103259;28;20391;-56
2022/10/01 14:29:05;;;;;;;;;;;18.70;98.90;;;;;;5041015;28;19928;-56
2022/10/01 14:31:42;;;;;;;;;;;18.60;99.90;;;;;;5090675;27;20352;-56
2022/10/01 14:34:22;;;;;;;;;;;18.60;99.50;;;;;;5076330;28;20153;-56
2022/10/01 14:36:50;;;;;;;;;;;18.60;99.30;;;;;;5092296;28;19935;-56
2022/10/01 14:39:19;;;;;;;;;;;18.50;99.40;;;;;;5104269;28;19923;-56
2022/10/01 14:41:48;;;;;;;;;;;18.40;99.90;;;;;;5086722;28;20124;-56
2022/10/01 14:44:20;;;;;;;;;;;18.30;99.90;;;;;;5101691;28;20203;-56
2022/10/01 14:46:48;;;;;;;;;;;18.30;99.70;;;;;;5086967;28;19939;-56
2022/10/01 14:49:19;;;;;;;;;;;18.20;99.00;;;;;;5093671;27;19924;-56
2022/10/01 14:51:49;;;;;;;;;;;17.90;99.20;;;;;;5096848;28;19924;-56
2022/10/01 14:54:17;;;;;;;;;;;17.80;99.90;;;;;;5106172;28;19928;-56
2022/10/01 14:56:45;;;;;;;;;;;17.70;99.90;;;;;;5106645;28;20406;-57